Time;durP1;ratioP1;P1;durP2;ratioP2;P2;SDS_P1;SDS_P2;PMS_P1;PMS_P2;Temp;Humidity;BMP_temperature;BMP_pressure;BME280_temperature;BME280_humidity;BME280_pressure;Samples;Min_cycle;Max_cycle;Signal;HPM_P1;HPM_P2
2022/06/19 00:01:57;;;;;;;12.02;1.98;;;;;;;10.04;96.90;101674.03;4990933;28;20460;-81
2022/06/19 00:04:23;;;;;;;9.50;2.22;;;;;;;10.05;96.54;101678.41;4959299;28;20034;-80
2022/06/19 00:06:49;;;;;;;5.57;1.60;;;;;;;10.05;96.38;101673.03;4957704;28;20038;-83
2022/06/19 00:09:14;;;;;;;7.97;1.85;;;;;;;10.03;96.64;101675.88;4969717;28;20060;-83
2022/06/19 00:11:41;;;;;;;7.88;1.70;;;;;;;10.02;96.83;101681.38;4973943;28;20041;-83
2022/06/19 00:14:07;;;;;;;9.82;1.67;;;;;;;10.01;97.02;101667.13;4970053;28;20042;-79
2022/06/19 00:16:34;;;;;;;7.75;2.42;;;;;;;10.01;97.09;101674.34;5004191;28;20134;-83
2022/06/19 00:18:59;;;;;;;9.20;1.92;;;;;;;9.99;97.24;101661.03;4955401;28;20037;-83
2022/06/19 00:21:25;;;;;;;11.38;1.90;;;;;;;9.94;97.11;101649.06;4970593;28;20420;-80
2022/06/19 00:23:51;;;;;;;12.75;2.45;;;;;;;10.06;97.21;101661.31;4973370;28;20455;-81
2022/06/19 00:26:17;;;;;;;10.00;2.42;;;;;;;10.08;97.16;101656.59;4956182;28;20043;-82
2022/06/19 00:28:46;;;;;;;7.05;1.80;;;;;;;10.13;97.20;101665.94;4956755;28;20069;-82
2022/06/19 00:31:12;;;;;;;9.13;1.70;;;;;;;10.19;97.38;101645.66;4955654;28;20030;-82
2022/06/19 00:33:39;;;;;;;15.18;2.03;;;;;;;10.20;97.21;101643.81;4984156;28;20153;-82
2022/06/19 00:36:05;;;;;;;7.47;2.17;;;;;;;10.18;97.40;101632.34;4987806;28;20126;-84
2022/06/19 00:38:32;;;;;;;9.48;2.40;;;;;;;10.19;97.44;101623.28;4965436;28;20034;-82
2022/06/19 00:40:59;;;;;;;5.32;2.08;;;;;;;10.23;97.53;101628.22;4956235;28;20060;-81
2022/06/19 00:43:25;;;;;;;8.95;1.63;;;;;;;10.25;97.58;101611.94;4987565;28;20030;-83
2022/06/19 00:45:51;;;;;;;13.95;1.85;;;;;;;10.32;97.24;101621.13;4979831;28;20057;-83
2022/06/19 00:48:22;;;;;;;8.93;1.83;;;;;;;10.31;97.45;101608.66;4968525;28;20472;-81
2022/06/19 00:50:49;;;;;;;6.03;1.95;;;;;;;10.34;97.42;101609.19;4985963;28;20546;-79
2022/06/19 00:53:18;;;;;;;4.10;1.67;;;;;;;10.38;97.46;101601.69;4955104;28;20035;-83
2022/06/19 00:55:45;;;;;;;6.13;1.55;;;;;;;10.39;97.41;101602.53;4970921;28;20607;-83
2022/06/19 00:58:20;;;;;;;5.57;1.52;;;;;;;10.37;97.79;101608.03;4955336;28;20041;-79
2022/06/19 01:00:48;;;;;;;10.90;2.22;;;;;;;10.33;97.71;101596.78;4981738;28;20113;-81
2022/06/19 01:03:42;;;;;;;16.50;2.40;;;;;;;10.36;97.87;101592.09;4966363;28;20036;-81
2022/06/19 01:06:08;;;;;;;13.70;2.50;;;;;;;10.31;98.17;101581.78;4940528;28;20847;-83
2022/06/19 01:08:34;;;;;;;7.88;1.58;;;;;;;10.29;97.94;101579.28;4970096;28;20476;-82
2022/06/19 01:11:00;;;;;;;9.48;2.00;;;;;;;9.94;98.14;101534.38;4986367;28;20109;-81
2022/06/19 01:13:28;;;;;;;9.07;1.95;;;;;;;10.13;98.85;101563.81;4968851;28;20037;-82
2022/06/19 01:15:54;;;;;;;10.02;2.88;;;;;;;10.22;98.79;101582.69;4968670;28;20034;-81
2022/06/19 01:18:20;;;;;;;10.20;1.88;;;;;;;10.21;99.11;101576.44;4983029;28;20049;-82
2022/06/19 01:20:46;;;;;;;12.90;2.40;;;;;;;10.13;98.98;101557.56;4992066;28;20029;-82
2022/06/19 01:23:20;;;;;;;6.63;2.13;;;;;;;10.21;99.11;101568.38;4968387;28;20511;-80
2022/06/19 01:25:49;;;;;;;6.10;1.50;;;;;;;10.19;99.01;101566.84;4987171;28;20038;-82
2022/06/19 01:28:45;;;;;;;7.07;1.55;;;;;;;10.15;99.33;101563.63;4953618;28;20050;-80
2022/06/19 01:31:16;;;;;;;6.70;1.77;;;;;;;10.20;99.28;101561.34;4954706;28;20030;-80
2022/06/19 01:33:49;;;;;;;8.13;2.40;;;;;;;10.27;98.73;101554.38;4949979;28;20049;-83
2022/06/19 01:36:16;;;;;;;5.82;1.55;;;;;;;10.23;98.74;101534.16;4985241;28;20058;-83
2022/06/19 01:38:46;;;;;;;11.48;2.40;;;;;;;10.33;98.56;101547.53;4968130;28;20038;-84
2022/06/19 01:41:23;;;;;;;5.60;1.35;;;;;;;10.33;98.38;101551.06;4985973;28;20663;-80
2022/06/19 01:43:48;;;;;;;6.75;1.73;;;;;;;10.29;98.83;101549.72;4985058;28;20030;-82
2022/06/19 01:46:20;;;;;;;6.95;1.77;;;;;;;10.28;98.82;101539.09;4951931;28;20388;-83
2022/06/19 01:48:46;;;;;;;12.38;2.78;;;;;;;10.29;98.70;101541.66;4964900;28;20113;-79
2022/06/19 01:51:11;;;;;;;10.07;2.17;;;;;;;10.29;98.80;101552.41;4965573;28;20110;-82
2022/06/19 01:53:44;;;;;;;20.25;2.20;;;;;;;10.27;98.64;101549.00;4949500;28;20034;-81
2022/06/19 01:56:12;;;;;;;9.00;2.03;;;;;;;10.28;98.76;101560.59;4986024;28;20400;-80
2022/06/19 01:58:40;;;;;;;10.48;2.40;;;;;;;10.28;98.86;101561.44;4985385;28;20038;-80
2022/06/19 02:01:07;;;;;;;4.05;1.73;;;;;;;10.30;98.75;101566.69;4965470;28;20038;-82
2022/06/19 02:03:41;;;;;;;6.10;1.60;;;;;;;10.35;98.49;101561.69;4982576;28;20136;-80
2022/06/19 02:06:08;;;;;;;7.75;1.83;;;;;;;10.39;98.15;101554.13;4984888;28;20065;-78
2022/06/19 02:08:35;;;;;;;7.32;1.70;;;;;;;10.34;98.15;101554.59;4962777;28;20043;-80
2022/06/19 02:11:01;;;;;;;5.93;2.03;;;;;;;10.32;98.27;101546.72;4994479;28;20023;-83
2022/06/19 02:13:29;;;;;;;8.93;1.90;;;;;;;10.33;98.26;101550.22;4952323;28;20885;-80
2022/06/19 02:15:55;;;;;;;6.55;1.77;;;;;;;10.19;98.70;101538.16;4980287;28;20058;-79
2022/06/19 02:18:24;;;;;;;6.47;1.60;;;;;;;10.23;99.07;101552.97;4984934;28;20064;-79
2022/06/19 02:20:53;;;;;;;7.97;1.45;;;;;;;10.22;99.20;101555.81;4967937;28;20042;-83
2022/06/19 02:23:32;;;;;;;10.05;1.77;;;;;;;10.20;99.64;101564.03;4998569;28;20031;-81
2022/06/19 02:25:58;;;;;;;8.15;1.58;;;;;;;10.11;100.00;101548.84;4950737;28;20415;-81
2022/06/19 02:28:25;;;;;;;9.88;2.10;;;;;;;10.26;99.92;101557.19;4986569;28;20038;-82
2022/06/19 02:30:51;;;;;;;10.73;2.30;;;;;;;10.26;99.76;101551.81;4990323;28;20030;-80
2022/06/19 02:33:19;;;;;;;9.73;2.17;;;;;;;10.23;100.00;101562.88;4954038;28;20100;-80
2022/06/19 02:35:44;;;;;;;8.30;2.05;;;;;;;10.16;100.00;101551.03;4970226;28;20035;-81
2022/06/19 02:38:14;;;;;;;10.13;2.50;;;;;;;10.15;100.00;101555.56;5000207;28;20049;-80
2022/06/19 02:41:06;;;;;;;11.32;2.08;;;;;;;10.17;100.00;101566.19;4975659;28;20408;-83
2022/06/19 02:43:35;;;;;;;7.90;1.90;;;;;;;10.15;100.00;101560.94;4991415;28;21736;-81
2022/06/19 02:46:06;;;;;;;9.07;2.10;;;;;;;10.17;100.00;101560.81;4953393;28;20539;-82
2022/06/19 02:48:32;;;;;;;8.45;2.30;;;;;;;10.14;100.00;101553.91;4969914;28;20049;-82
2022/06/19 02:51:00;;;;;;;6.82;2.38;;;;;;;10.15;100.00;101566.31;4982467;28;20117;-80
2022/06/19 02:53:26;;;;;;;5.57;1.92;;;;;;;10.12;100.00;101559.41;4976269;28;20614;-84
2022/06/19 02:55:53;;;;;;;12.95;2.55;;;;;;;10.12;100.00;101561.25;4983456;28;20590;-80
2022/06/19 02:58:19;;;;;;;13.07;2.28;;;;;;;10.15;100.00;101560.09;4949479;28;20046;-79
2022/06/19 03:00:48;;;;;;;8.38;2.13;;;;;;;10.13;100.00;101552.19;4976905;28;20564;-80
2022/06/19 03:03:36;;;;;;;7.28;2.05;;;;;;;10.11;100.00;101549.66;4967610;28;20030;-81
2022/06/19 03:06:11;;;;;;;5.85;1.55;;;;;;;10.11;100.00;101555.03;4986493;28;20026;-81
2022/06/19 03:08:37;;;;;;;14.10;2.90;;;;;;;10.11;100.00;101555.03;4971982;28;20029;-80
2022/06/19 03:11:06;;;;;;;7.80;1.77;;;;;;;10.07;100.00;101547.44;4971548;28;20034;-83
2022/06/19 03:13:32;;;;;;;6.15;1.70;;;;;;;10.01;100.00;101538.16;4980603;28;20125;-80
2022/06/19 03:16:02;;;;;;;8.27;2.47;;;;;;;10.01;100.00;101540.84;4993784;28;20502;-79
2022/06/19 03:18:29;;;;;;;10.77;2.00;;;;;;;9.98;100.00;101538.47;4985222;28;20041;-80
2022/06/19 03:20:55;;;;;;;4.50;1.83;;;;;;;9.99;100.00;101545.50;4959158;28;20480;-81
2022/06/19 03:23:21;;;;;;;10.60;2.05;;;;;;;9.89;100.00;101528.63;4983764;28;20099;-81
2022/06/19 03:25:46;;;;;;;9.35;2.13;;;;;;;9.91;100.00;101540.91;4987422;28;20030;-80
2022/06/19 03:28:12;;;;;;;7.57;2.10;;;;;;;9.93;100.00;101545.28;4989823;28;20080;-81
2022/06/19 03:30:44;;;;;;;9.35;1.83;;;;;;;9.92;100.00;101541.75;4984115;28;20038;-80
2022/06/19 03:33:30;;;;;;;5.88;1.58;;;;;;;9.89;100.00;101534.00;4969414;28;20035;-79
2022/06/19 03:35:56;;;;;;;8.60;1.52;;;;;;;9.86;100.00;101529.75;4988468;28;20392;-80
2022/06/19 03:38:22;;;;;;;8.05;1.58;;;;;;;9.88;100.00;101535.84;4954112;28;20477;-81
2022/06/19 03:40:47;;;;;;;10.55;1.95;;;;;;;9.90;100.00;101539.22;4988761;28;20037;-80
2022/06/19 03:43:14;;;;;;;8.38;1.80;;;;;;;9.80;100.00;101525.00;4977147;28;20030;-81
2022/06/19 03:45:40;;;;;;;9.82;3.20;;;;;;;9.89;100.00;101540.19;4991043;28;20126;-82
2022/06/19 03:48:06;;;;;;;7.80;1.77;;;;;;;9.89;100.00;101537.50;4959962;28;20043;-80
2022/06/19 03:50:44;;;;;;;11.40;2.50;;;;;;;9.91;100.00;101537.38;4974901;28;20495;-81
2022/06/19 03:53:16;;;;;;;5.80;2.40;;;;;;;9.96;100.00;101534.25;4987882;28;20045;-81
2022/06/19 03:55:47;;;;;;;7.30;1.85;;;;;;;9.98;100.00;101530.41;4967420;28;20057;-81
2022/06/19 03:58:13;;;;;;;12.23;2.25;;;;;;;9.90;100.00;101519.56;4983244;28;20042;-80
2022/06/19 04:00:39;;;;;;;9.73;1.48;;;;;;;9.98;100.00;101514.28;4984189;28;20403;-81
2022/06/19 04:03:05;;;;;;;5.32;1.35;;;;;;;10.09;100.00;101523.94;4950492;28;20248;-80
2022/06/19 04:05:31;;;;;;;4.80;1.70;;;;;;;10.20;100.00;101525.56;4987402;28;20035;-80
2022/06/19 04:07:57;;;;;;;12.65;1.88;;;;;;;10.31;99.66;101528.88;4988031;28;20062;-79
2022/06/19 04:10:23;;;;;;;9.18;1.45;;;;;;;10.36;99.25;101531.09;4967430;28;20080;-82
2022/06/19 04:12:49;;;;;;;6.25;1.13;;;;;;;10.35;98.83;101515.97;4970733;28;20070;-80
2022/06/19 04:15:15;;;;;;;6.18;1.67;;;;;;;10.33;99.26;101521.50;4981990;28;20459;-81
2022/06/19 04:17:41;;;;;;;7.78;2.03;;;;;;;10.25;100.00;101518.72;4980498;28;20041;-81
2022/06/19 04:20:08;;;;;;;10.95;2.22;;;;;;;10.19;100.00;101515.78;4971645;28;20069;-81
2022/06/19 04:22:35;;;;;;;7.63;1.90;;;;;;;10.09;100.00;101507.81;4987840;28;20042;-80
2022/06/19 04:25:00;;;;;;;9.07;2.10;;;;;;;10.11;100.00;101512.06;4966247;28;20030;-78
2022/06/19 04:27:26;;;;;;;6.65;2.05;;;;;;;10.15;100.00;101506.38;4957155;28;20050;-79
2022/06/19 04:29:52;;;;;;;4.47;1.48;;;;;;;10.11;100.00;101495.94;4971920;28;20038;-79
2022/06/19 04:32:18;;;;;;;11.52;2.45;;;;;;;10.16;100.00;101490.09;4982933;28;20030;-79
2022/06/19 04:34:43;;;;;;;8.15;2.33;;;;;;;10.18;100.00;101473.78;4986218;28;20459;-82
2022/06/19 04:37:09;;;;;;;7.57;1.55;;;;;;;10.19;100.00;101475.47;4954373;28;20092;-78
2022/06/19 04:39:34;;;;;;;8.98;2.33;;;;;;;10.26;100.00;101465.78;4955608;28;20099;-78
2022/06/19 04:42:00;;;;;;;7.63;2.00;;;;;;;10.22;100.00;101456.38;4982117;28;20084;-81
2022/06/19 04:44:26;;;;;;;10.18;2.20;;;;;;;10.28;100.00;101458.47;4986226;28;20038;-80
2022/06/19 04:47:01;;;;;;;3.67;1.63;;;;;;;10.30;100.00;101451.94;4984958;28;20060;-82
2022/06/19 04:49:26;;;;;;;10.45;1.95;;;;;;;10.37;100.00;101456.66;4968664;28;20249;-79
2022/06/19 04:51:52;;;;;;;6.32;2.00;;;;;;;10.47;100.00;101442.13;4957655;28;20093;-81
2022/06/19 04:54:24;;;;;;;9.20;2.30;;;;;;;10.52;100.00;101449.72;4992489;28;20088;-78
2022/06/19 04:56:54;;;;;;;10.98;2.00;;;;;;;10.55;100.00;101442.16;4982843;28;20050;-82
2022/06/19 04:59:22;;;;;;;13.73;2.25;;;;;;;10.59;100.00;101445.41;4969238;28;20044;-81
2022/06/19 05:01:47;;;;;;;3.83;1.63;;;;;;;10.62;99.54;101445.06;4972059;28;20416;-80
2022/06/19 05:04:15;;;;;;;8.10;1.77;;;;;;;10.60;99.85;101439.00;4951721;28;20045;-82
2022/06/19 05:06:42;;;;;;;12.35;2.72;;;;;;;10.62;100.00;101447.75;4996150;28;20045;-81
2022/06/19 05:09:08;;;;;;;13.18;2.90;;;;;;;10.66;99.98;101446.44;4968714;28;20113;-82
2022/06/19 05:11:34;;;;;;;4.95;1.88;;;;;;;10.85;98.81;101449.88;4988535;28;20117;-79
2022/06/19 05:14:01;;;;;;;3.28;1.45;;;;;;;11.04;97.03;101446.97;4950659;28;20038;-79
2022/06/19 05:16:27;;;;;;;9.55;3.03;;;;;;;11.00;96.86;101450.97;4969738;28;20056;-81
2022/06/19 05:18:54;;;;;;;3.92;1.55;;;;;;;11.03;96.63;101444.44;4952347;28;20052;-81
2022/06/19 05:21:21;;;;;;;6.57;2.25;;;;;;;11.08;95.69;101444.78;4974404;28;20045;-80
2022/06/19 05:23:48;;;;;;;8.93;1.70;;;;;;;11.05;95.16;101434.34;4970918;28;20039;-80
2022/06/19 05:26:18;;;;;;;10.23;1.90;;;;;;;11.15;94.27;101441.28;4948201;28;20022;-80
2022/06/19 05:28:45;;;;;;;13.23;2.67;;;;;;;11.17;94.46;101446.50;4974299;28;20030;-80
2022/06/19 05:31:12;;;;;;;8.52;1.83;;;;;;;11.20;94.05;101459.66;4986712;28;20034;-80
2022/06/19 05:33:38;;;;;;;8.18;1.85;;;;;;;11.19;94.34;101456.13;4969534;28;20038;-82
2022/06/19 05:36:04;;;;;;;4.78;1.23;;;;;;;11.23;94.08;101451.25;4952451;28;20515;-78
2022/06/19 05:38:30;;;;;;;6.43;1.85;;;;;;;11.26;93.84;101461.69;4989341;28;20110;-81
2022/06/19 05:40:58;;;;;;;13.35;2.15;;;;;;;11.14;93.97;101449.50;4988176;28;20034;-82
2022/06/19 05:43:25;;;;;;;6.97;1.50;;;;;;;11.25;94.11;101478.84;4984380;28;20559;-81
2022/06/19 05:45:51;;;;;;;8.00;1.67;;;;;;;11.19;94.60;101480.34;4984584;28;20088;-79
2022/06/19 05:48:17;;;;;;;7.80;1.88;;;;;;;11.27;94.45;101498.34;4983983;28;20038;-80
2022/06/19 05:50:43;;;;;;;5.82;1.50;;;;;;;11.31;93.80;101499.72;4956220;28;20050;-80
2022/06/19 05:53:08;;;;;;;11.45;1.80;;;;;;;11.38;93.38;101505.31;4990206;28;20496;-81
2022/06/19 05:55:34;;;;;;;10.00;1.73;;;;;;;11.41;94.21;101510.38;4962837;28;20090;-81
2022/06/19 05:58:00;;;;;;;8.65;1.55;;;;;;;11.44;93.77;101505.50;4964013;28;20096;-82
2022/06/19 06:00:25;;;;;;;3.38;1.90;;;;;;;11.62;93.17;101512.63;4965139;28;20033;-79
2022/06/19 06:02:51;;;;;;;6.93;2.10;;;;;;;11.73;91.95;101520.41;4972535;28;20027;-80
2022/06/19 06:05:16;;;;;;;4.97;1.55;;;;;;;11.74;91.88;101507.75;4964381;28;20030;-81
2022/06/19 06:07:42;;;;;;;5.38;1.45;;;;;;;11.87;91.79;101521.63;4962274;28;20453;-80
2022/06/19 06:10:09;;;;;;;6.47;1.80;;;;;;;11.96;91.25;101522.47;4969657;28;20038;-81
2022/06/19 06:12:35;;;;;;;5.35;1.30;;;;;;;11.88;91.32;101509.81;4952261;28;20038;-80
2022/06/19 06:15:01;;;;;;;5.47;1.38;;;;;;;11.99;91.46;101533.78;4955202;28;20419;-80
2022/06/19 06:17:26;;;;;;;5.13;1.35;;;;;;;12.11;90.76;101534.28;4977247;28;20034;-82
2022/06/19 06:19:52;;;;;;;5.97;1.42;;;;;;;12.17;89.97;101527.38;4964809;28;20035;-79
2022/06/19 06:22:17;;;;;;;3.17;1.27;;;;;;;12.19;90.67;101531.59;4970357;28;20042;-81
2022/06/19 06:24:43;;;;;;;4.88;2.08;;;;;;;12.24;89.92;101548.13;4976746;28;20100;-81
2022/06/19 06:27:09;;;;;;;5.13;1.50;;;;;;;12.19;90.52;101547.78;4976657;28;20046;-79
2022/06/19 06:29:34;;;;;;;4.20;1.20;;;;;;;12.18;90.84;101561.44;4977084;28;20043;-81
2022/06/19 06:32:00;;;;;;;12.63;1.77;;;;;;;12.03;91.33;101554.00;4964547;28;20364;-82
2022/06/19 06:34:28;;;;;;;5.97;1.38;;;;;;;12.09;91.29;101557.88;4978202;28;20035;-78
2022/06/19 06:37:03;;;;;;;5.10;1.50;;;;;;;12.01;91.53;101557.84;4966395;28;20048;-80
2022/06/19 06:39:28;;;;;;;5.65;1.42;;;;;;;12.05;91.66;101568.16;4947226;28;20057;-81
2022/06/19 06:41:54;;;;;;;9.20;2.63;;;;;;;12.20;90.94;101562.09;4976561;28;20038;-80
2022/06/19 06:44:22;;;;;;;5.70;1.40;;;;;;;12.22;91.20;101552.00;4979125;28;20459;-82
2022/06/19 06:46:48;;;;;;;5.38;1.25;;;;;;;12.38;90.92;101559.25;4947151;28;20156;-77
2022/06/19 06:49:14;;;;;;;8.07;1.35;;;;;;;12.31;90.47;101551.84;4977127;28;20026;-81
2022/06/19 06:51:42;;;;;;;4.43;1.13;;;;;;;12.45;90.62;101558.41;4971868;28;20034;-80
2022/06/19 06:54:08;;;;;;;6.20;1.60;;;;;;;12.53;89.49;101550.31;4975309;28;20038;-83
2022/06/19 06:56:35;;;;;;;4.82;1.55;;;;;;;12.52;89.97;101564.81;4981019;28;20874;-83
2022/06/19 06:59:01;;;;;;;7.15;1.30;;;;;;;12.42;89.89;101552.53;4970017;28;20081;-82
2022/06/19 07:01:29;;;;;;;3.40;1.55;;;;;;;12.61;89.13;101560.25;4968694;28;20038;-81
2022/06/19 07:03:55;;;;;;;11.30;2.33;;;;;;;12.57;86.92;101528.38;4988681;28;20038;-80
2022/06/19 07:06:31;;;;;;;8.02;2.03;;;;;;;12.76;86.64;101555.88;4971511;28;20105;-80
2022/06/19 07:08:57;;;;;;;7.38;2.40;;;;;;;12.79;85.23;101516.91;4986319;28;20068;-83
2022/06/19 07:11:25;;;;;;;7.00;2.17;;;;;;;13.15;84.99;101547.03;4973252;28;20464;-82
2022/06/19 07:13:52;;;;;;;7.22;2.33;;;;;;;13.36;83.82;101546.47;4987883;28;20031;-80
2022/06/19 07:16:23;;;;;;;8.32;2.38;;;;;;;13.57;82.38;101547.72;4954381;28;20046;-80
2022/06/19 07:18:49;;;;;;;11.55;1.85;;;;;;;13.77;81.57;101545.44;4953160;28;20041;-80
2022/06/19 07:21:15;;;;;;;7.22;1.98;;;;;;;13.91;80.92;101539.25;4985624;28;20034;-80
2022/06/19 07:23:41;;;;;;;10.77;2.60;;;;;;;13.88;79.47;101545.03;4970002;28;20117;-78
2022/06/19 07:26:11;;;;;;;15.43;2.28;;;;;;;13.83;79.65;101547.41;4975782;28;20034;-80
2022/06/19 07:28:38;;;;;;;10.32;2.08;;;;;;;13.81;80.44;101560.25;4953277;28;20042;-80
2022/06/19 07:31:04;;;;;;;8.57;2.00;;;;;;;13.63;79.82;101563.25;4967520;28;20469;-78
2022/06/19 07:33:30;;;;;;;6.93;2.80;;;;;;;13.64;78.95;101554.09;4976902;28;20034;-83
2022/06/19 07:35:56;;;;;;;11.00;3.60;;;;;;;13.74;79.15;101549.34;4983090;28;20129;-80
2022/06/19 07:38:21;;;;;;;12.07;2.95;;;;;;;13.90;79.08;101547.56;4951040;28;20039;-79
2022/06/19 07:40:50;;;;;;;10.57;2.83;;;;;;;14.26;77.48;101545.97;4981725;28;20045;-79
2022/06/19 07:43:19;;;;;;;9.93;2.30;;;;;;;14.52;76.90;101550.13;4988823;28;20471;-79
2022/06/19 07:45:45;;;;;;;17.98;3.53;;;;;;;14.69;76.71;101548.16;4971419;28;20034;-81
2022/06/19 07:51:04;;;;;;;7.55;2.15;;;;;;;14.84;75.83;101557.13;4989655;28;20088;-78
2022/06/19 07:53:33;;;;;;;11.65;2.35;;;;;;;14.86;74.45;101546.13;4969250;28;20074;-80
2022/06/19 07:56:07;;;;;;;7.63;2.63;;;;;;;14.75;73.72;101555.53;4954979;28;20492;-81
2022/06/19 07:58:38;;;;;;;;;;;;;;;14.86;72.26;101568.63;4953775;28;20042;-79
2022/06/19 08:01:04;;;;;;;11.67;2.83;;;;;;;14.83;73.41;101558.16;4970261;28;20409;-82
2022/06/19 08:03:30;;;;;;;9.90;1.92;;;;;;;14.65;74.72;101536.00;4984355;28;20314;-79
2022/06/19 08:05:56;;;;;;;8.45;2.08;;;;;;;14.50;75.88;101550.31;4974463;28;20125;-80
2022/06/19 08:08:27;;;;;;;14.50;2.13;;;;;;;14.21;76.53;101533.97;4967746;28;20107;-80
2022/06/19 08:10:55;;;;;;;10.05;2.70;;;;;;;14.24;76.29;101549.88;4973254;28;20038;-80
2022/06/19 08:13:23;;;;;;;12.02;2.15;;;;;;;14.23;76.48;101534.63;4966319;28;20034;-83
2022/06/19 08:16:10;;;;;;;15.82;3.88;;;;;;;14.12;76.81;101526.94;4985505;28;20038;-78
2022/06/19 08:18:37;;;;;;;8.73;3.38;;;;;;;14.07;76.88;101528.31;4968180;28;20057;-79
2022/06/19 08:21:03;;;;;;;13.82;3.08;;;;;;;14.11;77.52;101523.41;4961227;28;20041;-80
2022/06/19 08:23:29;;;;;;;13.93;2.78;;;;;;;14.02;78.25;101528.00;4967363;28;20077;-81
2022/06/19 08:25:55;;;;;;;10.30;2.83;;;;;;;14.01;78.89;101518.22;4956829;28;20034;-80
2022/06/19 08:31:06;;;;;;;10.07;2.35;;;;;;;14.69;77.27;101516.50;4986689;28;20045;-83
2022/06/19 08:33:31;;;;;;;8.77;2.88;;;;;;;15.22;73.28;101507.47;4989937;28;20058;-83
2022/06/19 08:36:02;;;;;;;15.60;2.85;;;;;;;15.26;73.64;101496.06;4956694;28;20050;-79
2022/06/19 08:38:33;;;;;;;16.88;3.58;;;;;;;15.61;70.69;101510.69;4966313;28;20039;-80
2022/06/19 08:41:14;;;;;;;9.68;2.25;;;;;;;15.70;70.43;101505.19;5000227;28;21794;-82
2022/06/19 08:43:51;;;;;;;13.07;2.55;;;;;;;15.89;70.24;101506.44;5005619;28;20030;-82
2022/06/19 08:46:35;;;;;;;9.70;2.83;;;;;;;16.18;67.29;101506.28;4984622;28;20066;-84
2022/06/19 08:49:06;;;;;;;11.45;3.97;;;;;;;16.65;64.12;101498.53;4980065;28;20129;-83
2022/06/19 08:52:01;;;;;;;15.50;2.80;;;;;;;17.12;63.70;101499.69;4985433;28;20038;-83
2022/06/19 08:54:52;;;;;;;10.93;2.65;;;;;;;17.76;60.26;101483.00;4962875;28;20476;-83
2022/06/19 08:57:33;;;;;;;12.98;4.05;;;;;;;17.37;60.00;101508.19;4995782;28;20038;-82
2022/06/19 09:00:05;;;;;;;18.10;3.00;;;;;;;16.44;63.85;101510.28;4995958;28;20030;-81
2022/06/19 09:02:43;;;;;;;12.57;3.97;;;;;;;16.04;65.70;101526.19;4980342;28;20034;-83
2022/06/19 09:08:11;;;;;;;6.93;2.50;;;;;;;15.39;68.76;101514.38;5003987;28;20533;-80
2022/06/19 09:10:51;;;;;;;9.68;2.17;;;;;;;15.28;69.28;101514.84;4990984;28;20026;-81
2022/06/19 09:13:35;;;;;;;15.70;3.85;;;;;;;15.30;69.27;101515.50;5003472;28;20035;-83
2022/06/19 09:16:21;;;;;;;19.77;3.55;;;;;;;15.14;69.35;101513.84;4997235;28;20040;-85
2022/06/19 09:19:02;;;;;;;10.32;3.47;;;;;;;15.03;69.71;101527.81;4979495;28;20073;-84
2022/06/19 09:21:36;;;;;;;11.77;2.92;;;;;;;14.83;72.24;101535.66;4968248;28;20042;-84
2022/06/19 09:24:20;;;;;;;10.50;2.67;;;;;;;14.62;74.90;101544.50;4988235;28;20041;-88
2022/06/19 09:26:57;;;;;;;9.07;2.08;;;;;;;14.27;76.60;101538.69;4993306;28;20141;-87
2022/06/19 09:29:33;;;;;;;9.80;2.08;;;;;;;14.23;77.27;101558.97;4988991;28;20030;-85
2022/06/19 09:32:02;;;;;;;9.43;1.95;;;;;;;14.22;77.31;101554.59;4990075;28;20491;-86
2022/06/19 09:34:52;;;;;;;7.00;2.25;;;;;;;14.37;77.47;101558.22;4991556;28;20046;-86
2022/06/19 09:37:37;;;;;;;8.93;2.72;;;;;;;14.78;73.99;101557.88;4975661;28;20046;-89
2022/06/19 09:40:21;;;;;;;4.75;1.75;;;;;;;15.22;74.44;101575.22;4986112;28;20088;-86
2022/06/19 09:43:15;;;;;;;8.07;1.90;;;;;;;15.83;69.89;101568.53;4981409;28;20039;-87
2022/06/19 09:45:45;;;;;;;14.88;3.10;;;;;;;16.51;67.15;101581.75;4956895;28;20034;-87
2022/06/19 09:48:21;;;;;;;9.85;2.10;;;;;;;17.32;63.75;101575.91;4958098;28;20030;-89
2022/06/19 09:50:55;;;;;;;10.55;2.50;;;;;;;17.70;61.89;101560.00;4987709;28;20081;-87
2022/06/19 09:53:44;;;;;;;10.80;3.75;;;;;;;17.79;58.62;101575.09;4957733;28;20038;-88
2022/06/19 09:56:21;;;;;;;8.82;1.70;;;;;;;17.80;58.23;101559.63;4972043;28;20088;-84
2022/06/19 09:59:05;;;;;;;12.00;2.58;;;;;;;17.57;59.46;101574.38;4990781;28;20041;-88
2022/06/19 10:01:31;;;;;;;5.30;1.90;;;;;;;16.89;61.73;101562.47;4989977;28;20037;-84
2022/06/19 10:04:01;;;;;;;10.70;3.05;;;;;;;16.77;64.20;101564.88;4985872;28;20096;-86
2022/06/19 10:06:38;;;;;;;11.40;3.78;;;;;;;16.64;64.38;101581.84;4956187;28;20022;-87
2022/06/19 10:09:18;;;;;;;18.63;2.72;;;;;;;16.51;64.20;101573.59;4967796;28;20034;-87
2022/06/19 10:11:44;;;;;;;7.10;2.58;;;;;;;16.50;63.74;101580.06;4986821;28;20031;-88
2022/06/19 10:14:25;;;;;;;9.45;2.50;;;;;;;16.21;65.08;101581.03;4966874;28;20042;-85
2022/06/19 10:16:54;;;;;;;11.43;2.22;;;;;;;16.04;65.08;101577.75;4952045;28;20038;-86
2022/06/19 10:19:33;;;;;;;11.02;2.72;;;;;;;16.21;65.82;101590.00;4988747;28;20037;-86
2022/06/19 10:22:26;;;;;;;8.75;2.22;;;;;;;16.72;62.42;101572.72;4973618;28;20475;-84
2022/06/19 10:24:58;;;;;;;7.43;2.70;;;;;;;17.27;60.22;101586.53;4989192;28;20061;-84
2022/06/19 10:27:49;;;;;;;15.38;2.67;;;;;;;17.48;59.37;101572.00;4970051;28;20041;-85
2022/06/19 10:30:46;;;;;;;11.82;2.40;;;;;;;17.78;59.23;101578.84;4971991;28;20038;-86
2022/06/19 10:33:31;;;;;;;14.13;2.25;;;;;;;18.17;56.21;101580.03;4973009;28;20119;-85
2022/06/19 10:36:02;;;;;;;7.68;1.85;;;;;;;18.14;57.16;101582.34;4969676;28;20480;-89
2022/06/19 10:38:37;;;;;;;8.45;1.98;;;;;;;18.02;56.11;101580.22;4972512;28;20054;-86
2022/06/19 10:42:00;;;;;;;5.80;1.55;;;;;;;17.30;57.87;101569.81;4974524;28;20155;-88
2022/06/19 10:44:10;;;;;;;6.15;1.50;;;;;;;16.35;63.37;101573.88;4989135;28;20035;-85
2022/06/19 10:46:37;;;;;;;10.23;2.83;;;;;;;15.99;66.02;101582.91;4989030;28;20125;-83
2022/06/19 10:49:41;;;;;;;7.15;2.08;;;;;;;16.05;65.44;101576.69;4958029;28;20034;-88
2022/06/19 10:52:45;;;;;;;9.15;2.80;;;;;;;16.84;62.46;101573.09;4987486;28;20400;-85
2022/06/19 10:55:26;;;;;;;11.30;1.98;;;;;;;17.59;60.30;101580.41;4952152;28;20073;-85
2022/06/19 10:58:05;;;;;;;8.82;2.25;;;;;;;18.23;58.73;101576.50;4974250;28;20157;-85
2022/06/19 11:00:30;;;;;;;7.95;2.38;;;;;;;18.68;57.04;101573.16;4980604;28;20053;-82
2022/06/19 11:06:10;;;;;;;9.48;3.15;;;;;;;19.19;54.56;101577.16;4985806;28;20042;-84
2022/06/19 11:08:37;;;;;;;6.10;1.92;;;;;;;18.76;56.94;101567.56;4986046;28;20061;-82
2022/06/19 11:11:09;;;;;;;7.10;3.28;;;;;;;18.04;58.86;101560.94;4985223;28;20049;-85
2022/06/19 11:13:56;;;;;;;10.70;3.30;;;;;;;17.31;60.86;101568.81;4986081;28;20480;-80
2022/06/19 11:16:22;;;;;;;11.13;2.40;;;;;;;16.82;63.07;101561.56;4983151;28;20034;-85
2022/06/19 11:18:49;;;;;;;9.30;1.38;;;;;;;16.57;64.35;101561.97;4984740;28;20056;-84
2022/06/19 11:21:22;;;;;;;9.27;2.30;;;;;;;16.55;63.98;101568.63;4965704;28;20050;-82
2022/06/19 11:23:48;;;;;;;8.83;1.70;;;;;;;16.60;63.96;101558.03;4984809;28;20078;-83
2022/06/19 11:26:16;;;;;;;5.53;2.20;;;;;;;16.99;63.75;101560.25;4991099;28;20042;-83
2022/06/19 11:28:51;;;;;;;8.98;2.28;;;;;;;17.48;61.12;101570.13;4992505;28;20161;-80
2022/06/19 11:31:26;;;;;;;11.07;2.05;;;;;;;17.48;61.07;101559.25;4973135;28;20042;-84
2022/06/19 11:33:56;;;;;;;5.30;2.22;;;;;;;17.27;61.33;101559.34;4988481;28;20488;-80
2022/06/19 11:36:34;;;;;;;11.38;2.20;;;;;;;16.68;63.25;101512.56;4969842;28;20053;-84
2022/06/19 11:39:22;;;;;;;6.93;1.88;;;;;;;16.62;63.91;101567.66;4969379;28;20046;-86
2022/06/19 11:41:48;;;;;;;9.93;1.95;;;;;;;16.30;65.06;101563.63;4991576;28;20038;-83
2022/06/19 11:44:18;;;;;;;9.40;2.05;;;;;;;15.96;66.89;101572.44;5002940;28;20404;-81
2022/06/19 11:46:44;;;;;;;13.68;2.40;;;;;;;15.64;69.09;101576.38;4989204;28;20467;-81
2022/06/19 11:49:30;;;;;;;15.85;3.97;;;;;;;15.30;71.75;101557.00;4988730;28;20041;-81